Aviation Digital Data Service (ADDS)

Output produced by METARs form (0421 UTC 26 October 2014)
found at http://www.aviationweather.gov/adds/metars/
 
KATL 260349Z 2604/2706 30007KT P6SM FEW025 
     FM261300 32008KT P6SM FEW250 
     FM270000 31003KT P6SM SKC